createdAt,value
2019-03-17T00:00:33.501Z,5.30
2019-03-17T00:03:02.700Z,6.00
2019-03-17T00:05:31.914Z,2.90
2019-03-17T00:08:01.101Z,4.13
2019-03-17T00:10:30.286Z,3.13
2019-03-17T00:12:59.525Z,6.03
2019-03-17T00:15:28.867Z,4.13
2019-03-17T00:17:58.060Z,2.83
2019-03-17T00:20:27.287Z,2.80
2019-03-17T00:22:56.570Z,5.70
2019-03-17T00:25:25.760Z,3.87
2019-03-17T00:27:54.989Z,3.43
2019-03-17T00:30:26.632Z,6.37
2019-03-17T00:33:00.741Z,3.83
2019-03-17T00:35:31.623Z,6.40
2019-03-17T00:38:00.943Z,3.90
2019-03-17T00:40:30.181Z,4.93
2019-03-17T00:42:59.370Z,4.00
2019-03-17T00:45:28.537Z,4.30
2019-03-17T00:47:57.818Z,2.67
2019-03-17T00:50:27.002Z,3.27
2019-03-17T00:52:56.215Z,4.03
2019-03-17T00:55:25.402Z,3.50
2019-03-17T00:57:54.631Z,4.03
2019-03-17T01:00:23.876Z,3.93
2019-03-17T01:02:53.058Z,2.27
2019-03-17T01:05:22.568Z,2.53
2019-03-17T01:07:52.078Z,3.93
2019-03-17T01:10:21.274Z,3.97
2019-03-17T01:12:50.465Z,4.80
2019-03-17T01:15:19.753Z,3.67
2019-03-17T01:17:49.020Z,5.20
2019-03-17T01:20:18.283Z,2.80
2019-03-17T01:22:47.460Z,4.23
2019-03-17T01:25:16.646Z,3.63
2019-03-17T01:27:46.054Z,5.23
2019-03-17T01:30:16.180Z,3.90
2019-03-17T01:32:45.332Z,2.40
2019-03-17T01:35:16.905Z,4.93
2019-03-17T01:37:46.046Z,2.73
2019-03-17T01:40:15.520Z,2.27
2019-03-17T01:42:44.793Z,4.23
2019-03-17T01:45:13.960Z,3.47
2019-03-17T01:47:43.367Z,4.00
2019-03-17T01:50:12.584Z,5.33
2019-03-17T01:52:41.784Z,4.13
2019-03-17T01:55:17.829Z,4.10
2019-03-17T01:57:46.991Z,3.47
2019-03-17T02:00:16.138Z,4.13
2019-03-17T02:02:45.358Z,4.03
2019-03-17T02:05:21.936Z,3.10
2019-03-17T02:07:46.528Z,4.73
2019-03-17T02:10:15.774Z,5.67
2019-03-17T02:12:44.991Z,4.30
2019-03-17T02:15:14.215Z,2.37
2019-03-17T02:17:43.412Z,5.47
2019-03-17T02:20:12.605Z,3.63
2019-03-17T02:22:41.808Z,5.67
2019-03-17T02:25:11.004Z,5.07
2019-03-17T02:27:40.159Z,3.73
2019-03-17T02:30:09.980Z,3.27
2019-03-17T02:32:39.104Z,3.80
2019-03-17T02:35:08.379Z,3.40
2019-03-17T02:37:37.595Z,4.67
2019-03-17T02:40:06.900Z,3.77
2019-03-17T02:42:47.661Z,4.50
2019-03-17T02:45:17.252Z,4.57
2019-03-17T02:47:46.447Z,5.13
2019-03-17T02:50:15.699Z,4.00
2019-03-17T02:52:44.877Z,5.13
2019-03-17T02:55:14.111Z,5.03
2019-03-17T02:57:43.349Z,5.40
2019-03-17T03:00:13.080Z,4.37
2019-03-17T03:02:42.826Z,4.53
2019-03-17T03:05:12.045Z,5.07
2019-03-17T03:07:41.511Z,7.30
2019-03-17T03:10:10.794Z,6.13
2019-03-17T03:12:39.913Z,4.80
2019-03-17T03:15:09.530Z,3.73
2019-03-17T03:17:38.697Z,5.60
2019-03-17T03:20:08.000Z,3.73
2019-03-17T03:22:37.176Z,3.37
2019-03-17T03:25:06.389Z,4.13
2019-03-17T03:27:35.553Z,5.00
2019-03-17T03:30:05.381Z,3.77
2019-03-17T03:32:34.608Z,4.70
2019-03-17T03:35:04.269Z,4.50
2019-03-17T03:37:33.511Z,4.07
2019-03-17T03:40:02.653Z,5.03
2019-03-17T03:42:31.845Z,5.53
2019-03-17T03:45:00.996Z,6.30
2019-03-17T03:47:30.222Z,5.20
2019-03-17T03:49:59.383Z,6.90
2019-03-17T03:52:28.616Z,7.80
2019-03-17T03:54:57.744Z,6.27
2019-03-17T03:57:27.191Z,8.03
2019-03-17T03:59:56.449Z,8.00
2019-03-17T04:02:25.615Z,6.80
2019-03-17T04:04:54.790Z,6.70
2019-03-17T04:07:24.394Z,6.93
2019-03-17T04:09:53.706Z,14.47
2019-03-17T04:12:23.222Z,10.37
2019-03-17T04:14:54.604Z,13.33
2019-03-17T04:17:23.884Z,6.20
2019-03-17T04:19:53.325Z,8.03
2019-03-17T04:22:22.568Z,7.90
2019-03-17T04:24:51.768Z,7.43
2019-03-17T04:27:20.936Z,7.40
2019-03-17T04:29:50.171Z,7.13
2019-03-17T04:32:19.448Z,9.57
2019-03-17T04:34:48.659Z,7.73
2019-03-17T04:37:18.096Z,6.17
2019-03-17T04:39:47.532Z,10.67
2019-03-17T04:42:16.751Z,12.87
2019-03-17T04:44:45.933Z,8.27
2019-03-17T04:47:15.181Z,7.10
2019-03-17T04:49:47.120Z,7.27
2019-03-17T04:52:16.141Z,6.97
2019-03-17T04:54:45.504Z,7.10
2019-03-17T04:57:14.688Z,11.43
2019-03-17T04:59:44.276Z,9.83
2019-03-17T05:02:13.862Z,5.37
2019-03-17T05:04:43.394Z,6.33
2019-03-17T05:07:13.046Z,8.13
2019-03-17T05:09:42.265Z,7.77
2019-03-17T05:12:11.517Z,9.60
2019-03-17T05:14:40.740Z,11.20
2019-03-17T05:17:10.003Z,9.87
2019-03-17T05:19:39.229Z,10.33
2019-03-17T05:22:08.503Z,8.67
2019-03-17T05:24:37.688Z,9.67
2019-03-17T05:27:06.913Z,8.07
2019-03-17T05:29:40.636Z,7.90
2019-03-17T05:32:09.864Z,7.33
2019-03-17T05:34:39.132Z,7.77
2019-03-17T05:37:08.411Z,7.30
2019-03-17T05:39:37.629Z,5.33
2019-03-17T05:42:06.859Z,10.20
2019-03-17T05:44:36.033Z,6.37
2019-03-17T05:47:05.278Z,9.30
2019-03-17T05:49:36.833Z,8.37
2019-03-17T05:52:06.240Z,12.37
2019-03-17T05:54:38.545Z,9.37
2019-03-17T05:57:07.766Z,9.17
2019-03-17T05:59:37.449Z,5.97
2019-03-17T06:02:06.631Z,6.40
2019-03-17T06:04:36.133Z,6.40
2019-03-17T06:07:18.259Z,6.37
2019-03-17T06:09:40.165Z,12.83
2019-03-17T06:12:09.695Z,7.37
2019-03-17T06:14:38.882Z,6.07
2019-03-17T06:17:08.061Z,6.20
2019-03-17T06:19:37.242Z,7.40
2019-03-17T06:22:08.719Z,5.20
2019-03-17T06:24:37.935Z,7.17
2019-03-17T06:27:07.221Z,10.73
2019-03-17T06:29:36.470Z,8.33
2019-03-17T06:32:05.723Z,7.33
2019-03-17T06:34:34.994Z,5.57
2019-03-17T06:37:04.496Z,10.07
2019-03-17T06:39:33.704Z,8.10
2019-03-17T06:42:02.934Z,8.07
2019-03-17T06:44:32.100Z,5.40
2019-03-17T06:47:01.402Z,8.53
2019-03-17T06:49:30.595Z,6.60
2019-03-17T06:51:59.803Z,8.67
2019-03-17T06:54:28.967Z,8.43
2019-03-17T06:56:58.197Z,4.53
2019-03-17T06:59:27.692Z,5.57
2019-03-17T07:01:56.895Z,6.70
2019-03-17T07:04:26.142Z,6.37
2019-03-17T07:06:55.371Z,6.23
2019-03-17T07:09:27.647Z,6.80
2019-03-17T07:11:56.866Z,9.80
2019-03-17T07:14:26.060Z,5.37
2019-03-17T07:16:55.245Z,6.90
2019-03-17T07:19:28.530Z,6.73
2019-03-17T07:21:57.677Z,6.10
2019-03-17T07:24:26.844Z,4.13
2019-03-17T07:26:58.396Z,5.17
2019-03-17T07:29:27.581Z,4.23
2019-03-17T07:31:57.060Z,5.27
2019-03-17T07:34:28.074Z,3.33
2019-03-17T07:36:57.385Z,3.87
2019-03-17T07:39:26.600Z,3.90
2019-03-17T07:41:58.773Z,3.80
2019-03-17T07:44:27.962Z,5.83
2019-03-17T07:46:57.372Z,3.73
2019-03-17T07:49:50.804Z,3.37
2019-03-17T07:52:21.403Z,2.60
2019-03-17T07:54:50.889Z,4.97
2019-03-17T07:57:23.993Z,2.40
2019-03-17T07:59:56.100Z,4.17
2019-03-17T08:02:25.369Z,5.80
2019-03-17T08:04:54.562Z,2.10
2019-03-17T08:07:24.257Z,1.87
2019-03-17T08:09:53.410Z,2.90
2019-03-17T08:12:22.699Z,6.13
2019-03-17T08:14:51.893Z,4.30
2019-03-17T08:17:21.370Z,2.47
2019-03-17T08:19:50.569Z,2.83
2019-03-17T08:22:19.760Z,3.43
2019-03-17T08:24:48.976Z,3.60
2019-03-17T08:27:18.123Z,3.43
2019-03-17T08:29:47.360Z,4.00
2019-03-17T08:32:16.516Z,4.97
2019-03-17T08:34:45.851Z,2.33
2019-03-17T08:37:17.316Z,2.97
2019-03-17T08:39:46.881Z,3.13
2019-03-17T08:42:16.268Z,3.57
2019-03-17T08:44:45.563Z,3.00
2019-03-17T08:47:14.875Z,4.07
2019-03-17T08:49:44.018Z,5.17
2019-03-17T08:52:11.685Z,6.90
2019-03-17T08:54:40.801Z,8.13
2019-03-17T08:57:10.089Z,7.27
2019-03-17T08:59:39.236Z,4.83
2019-03-17T09:02:08.726Z,6.30
2019-03-17T09:04:38.057Z,4.90
2019-03-17T09:07:07.607Z,2.57
2019-03-17T09:09:38.913Z,3.03
2019-03-17T09:12:08.173Z,3.60
2019-03-17T09:14:37.447Z,2.97
2019-03-17T09:17:14.281Z,4.40
2019-03-17T09:19:37.904Z,5.87
2019-03-17T09:22:07.216Z,2.27
2019-03-17T09:24:36.545Z,3.13
2019-03-17T09:27:05.873Z,4.47
2019-03-17T09:29:35.151Z,4.07
2019-03-17T09:32:04.425Z,5.10
2019-03-17T09:34:33.632Z,4.53
2019-03-17T09:37:03.264Z,4.53
2019-03-17T09:39:35.039Z,2.53
2019-03-17T09:42:05.193Z,3.53
2019-03-17T09:44:34.367Z,2.53
2019-03-17T09:47:03.626Z,3.83
2019-03-17T09:49:33.072Z,3.37
2019-03-17T09:52:02.595Z,4.47
2019-03-17T09:54:31.855Z,2.50
2019-03-17T09:57:03.909Z,5.50
2019-03-17T09:59:33.093Z,2.40
2019-03-17T10:02:02.609Z,2.23
2019-03-17T10:04:34.111Z,3.43
2019-03-17T10:07:03.668Z,2.77
2019-03-17T10:09:33.816Z,1.70
2019-03-17T10:12:03.139Z,4.33
2019-03-17T10:14:32.474Z,1.77
2019-03-17T10:17:02.008Z,3.73
2019-03-17T10:19:34.800Z,3.33
2019-03-17T10:22:04.065Z,3.33
2019-03-17T10:24:33.292Z,2.03
2019-03-17T10:27:02.630Z,2.00
2019-03-17T10:29:31.784Z,3.00
2019-03-17T10:32:00.945Z,2.73
2019-03-17T10:34:30.165Z,2.37
2019-03-17T10:36:59.390Z,2.43
2019-03-17T10:39:28.547Z,2.10
2019-03-17T10:41:57.728Z,5.23
2019-03-17T10:44:27.019Z,4.47
2019-03-17T10:46:56.324Z,0.80
2019-03-17T10:49:28.410Z,5.17
2019-03-17T10:51:57.839Z,1.77
2019-03-17T10:54:27.291Z,4.93
2019-03-17T10:56:56.589Z,2.87
2019-03-17T10:59:27.685Z,2.40
2019-03-17T11:01:56.849Z,3.90
2019-03-17T11:04:26.131Z,1.90
2019-03-17T11:06:55.826Z,2.93
2019-03-17T11:09:25.929Z,3.23
2019-03-17T11:11:55.182Z,2.23
2019-03-17T11:14:24.471Z,4.10
2019-03-17T11:16:53.744Z,1.27
2019-03-17T11:19:25.549Z,4.07
2019-03-17T11:21:54.217Z,2.37
2019-03-17T11:24:23.455Z,4.93
2019-03-17T11:26:55.601Z,3.27
2019-03-17T11:29:23.948Z,3.10
2019-03-17T11:31:54.637Z,1.63
2019-03-17T11:34:23.852Z,6.97
2019-03-17T11:36:53.205Z,3.77
2019-03-17T11:39:23.432Z,3.17
2019-03-17T11:41:53.591Z,2.20
2019-03-17T11:44:23.779Z,4.13
2019-03-17T11:46:53.910Z,2.10
2019-03-17T11:49:23.455Z,2.67
2019-03-17T11:51:53.248Z,5.80
2019-03-17T11:54:24.305Z,4.93
2019-03-17T11:56:53.529Z,2.90
2019-03-17T11:59:23.572Z,3.67
2019-03-17T12:01:52.936Z,3.23
2019-03-17T12:04:22.192Z,2.30
2019-03-17T12:06:53.466Z,3.87
2019-03-17T12:09:29.074Z,2.13
2019-03-17T12:11:53.753Z,4.63
2019-03-17T12:14:22.996Z,5.33
2019-03-17T12:16:52.303Z,2.77
2019-03-17T12:19:21.459Z,2.43
2019-03-17T12:21:50.652Z,5.70
2019-03-17T12:24:19.845Z,3.07
2019-03-17T12:26:49.064Z,2.70
2019-03-17T12:29:18.354Z,2.83
2019-03-17T12:31:47.584Z,5.13
2019-03-17T12:34:27.819Z,1.50
2019-03-17T12:36:47.691Z,3.40
2019-03-17T12:39:17.147Z,1.23
2019-03-17T12:41:46.735Z,0.93
2019-03-17T12:44:19.106Z,1.03
2019-03-17T12:46:48.406Z,1.07
2019-03-17T12:49:17.612Z,2.77
2019-03-17T12:51:46.860Z,0.80
2019-03-17T12:54:16.028Z,0.67
2019-03-17T12:56:45.216Z,1.37
2019-03-17T12:59:14.585Z,0.90
2019-03-17T13:01:43.849Z,0.43
2019-03-17T13:04:13.024Z,0.90
2019-03-17T13:06:42.256Z,0.97
2019-03-17T13:09:11.673Z,2.70
2019-03-17T13:11:40.818Z,0.67
2019-03-17T13:14:12.422Z,1.93
2019-03-17T13:16:41.660Z,4.77
2019-03-17T13:19:10.903Z,1.37
2019-03-17T13:21:40.105Z,2.50
2019-03-17T13:24:09.255Z,1.83
2019-03-17T13:26:38.597Z,0.80
2019-03-17T13:29:07.800Z,4.20
2019-03-17T13:31:37.263Z,1.13
2019-03-17T13:34:06.504Z,2.23
2019-03-17T13:36:35.732Z,2.70
2019-03-17T13:39:07.028Z,1.57
2019-03-17T13:41:36.249Z,2.80
2019-03-17T13:44:05.415Z,2.20
2019-03-17T13:46:34.904Z,1.17
2019-03-17T13:49:04.095Z,0.60
2019-03-17T13:51:33.334Z,1.43
2019-03-17T13:54:02.519Z,1.77
2019-03-17T13:56:31.709Z,4.27
2019-03-17T13:59:06.223Z,1.83
2019-03-17T14:01:34.250Z,2.27
2019-03-17T14:04:03.476Z,1.00
2019-03-17T14:06:33.578Z,3.23
2019-03-17T14:09:04.496Z,1.00
2019-03-17T14:11:34.066Z,1.70
2019-03-17T14:14:03.297Z,1.17
2019-03-17T14:16:32.459Z,4.93
2019-03-17T14:19:01.665Z,4.53
2019-03-17T14:21:30.869Z,1.70
2019-03-17T14:24:00.043Z,2.53
2019-03-17T14:26:29.216Z,2.70
2019-03-17T14:28:58.418Z,2.37
2019-03-17T14:31:27.601Z,1.63
2019-03-17T14:33:57.020Z,1.90
2019-03-17T14:36:26.236Z,1.83
2019-03-17T14:38:55.410Z,1.90
2019-03-17T14:41:24.642Z,1.33
2019-03-17T14:43:53.880Z,0.97
2019-03-17T14:46:25.157Z,2.53
2019-03-17T14:48:54.427Z,1.60
2019-03-17T14:51:23.681Z,1.43
2019-03-17T14:53:52.804Z,4.00
2019-03-17T14:56:22.093Z,2.67
2019-03-17T14:58:51.515Z,4.43
2019-03-17T15:01:20.750Z,1.60
2019-03-17T15:03:50.711Z,4.40
2019-03-17T15:06:20.051Z,1.80
2019-03-17T15:08:49.277Z,2.33
2019-03-17T15:11:18.518Z,2.23
2019-03-17T15:13:47.951Z,3.47
2019-03-17T15:16:19.530Z,2.13
2019-03-17T15:18:48.769Z,2.20
2019-03-17T15:21:17.997Z,0.80
2019-03-17T15:23:47.312Z,4.27
2019-03-17T15:26:19.518Z,2.87
2019-03-17T15:28:49.000Z,1.30
2019-03-17T15:31:18.301Z,1.57
2019-03-17T15:36:13.172Z,4.23
2019-03-17T15:38:42.445Z,4.70
2019-03-17T15:41:18.367Z,6.03
2019-03-17T15:43:42.671Z,4.33
2019-03-17T15:46:11.848Z,5.00
2019-03-17T15:48:41.146Z,10.10
2019-03-17T15:51:19.648Z,4.93
2019-03-17T15:53:42.156Z,1.80
2019-03-17T15:56:11.420Z,3.70
2019-03-17T15:58:43.112Z,3.33
2019-03-17T16:01:15.038Z,2.83
2019-03-17T16:03:42.593Z,4.23
2019-03-17T16:06:11.822Z,3.10
2019-03-17T16:08:40.957Z,3.93
2019-03-17T16:11:10.212Z,4.37
2019-03-17T16:13:39.439Z,4.30
2019-03-17T16:16:08.935Z,3.97
2019-03-17T16:18:38.678Z,5.60
2019-03-17T16:21:09.042Z,2.47
2019-03-17T16:23:38.629Z,3.07
2019-03-17T16:26:08.322Z,3.33
2019-03-17T16:28:37.781Z,4.87
2019-03-17T16:31:07.082Z,6.83
2019-03-17T16:33:36.275Z,2.40
2019-03-17T16:36:05.707Z,2.20
2019-03-17T16:38:35.247Z,3.07
2019-03-17T16:41:04.462Z,2.83
2019-03-17T16:43:33.679Z,5.97
2019-03-17T16:46:03.002Z,4.47
2019-03-17T16:48:32.164Z,3.27
2019-03-17T16:51:01.492Z,2.93
2019-03-17T16:53:30.801Z,3.67
2019-03-17T16:56:00.116Z,3.60
2019-03-17T16:58:29.301Z,2.10
2019-03-17T17:01:01.720Z,3.83
2019-03-17T17:03:31.033Z,3.40
2019-03-17T17:06:00.283Z,6.97
2019-03-17T17:08:29.481Z,4.13
2019-03-17T17:11:00.599Z,3.80
2019-03-17T17:13:29.580Z,3.53
2019-03-17T17:15:58.818Z,5.83
2019-03-17T17:18:28.961Z,4.50
2019-03-17T17:20:58.178Z,1.87
2019-03-17T17:23:27.431Z,4.40
2019-03-17T17:25:56.699Z,2.03
2019-03-17T17:28:26.005Z,2.47
2019-03-17T17:30:55.308Z,2.33
2019-03-17T17:33:24.435Z,5.67
2019-03-17T17:35:53.656Z,4.77
2019-03-17T17:38:22.941Z,2.00
2019-03-17T17:40:52.092Z,3.87
2019-03-17T17:43:21.280Z,4.27
2019-03-17T17:45:50.499Z,3.20
2019-03-17T17:48:19.693Z,1.50
2019-03-17T17:50:48.915Z,2.27
2019-03-17T17:53:18.131Z,1.87
2019-03-17T17:55:47.356Z,2.80
2019-03-17T17:58:16.514Z,3.23
2019-03-17T18:00:46.317Z,3.87
2019-03-17T18:03:18.342Z,2.40
2019-03-17T18:05:48.538Z,3.10
2019-03-17T18:08:18.181Z,1.93
2019-03-17T18:10:48.642Z,3.23
2019-03-17T18:13:17.900Z,3.03
2019-03-17T18:18:16.285Z,5.07
2019-03-17T18:20:45.622Z,5.23
2019-03-17T18:23:18.123Z,5.47
2019-03-17T18:25:45.874Z,4.23
2019-03-17T18:28:15.076Z,4.33
2019-03-17T18:30:44.438Z,8.90
2019-03-17T18:33:13.628Z,4.20
2019-03-17T18:35:42.867Z,4.33
2019-03-17T18:38:12.068Z,4.10
2019-03-17T18:40:42.327Z,3.43
2019-03-17T18:43:11.773Z,2.40
2019-03-17T18:45:42.675Z,2.37
2019-03-17T18:48:12.377Z,4.20
2019-03-17T18:50:42.062Z,3.23
2019-03-17T18:53:11.271Z,0.90
2019-03-17T18:55:40.528Z,1.50
2019-03-17T18:58:09.760Z,4.63
2019-03-17T19:00:39.946Z,0.80
2019-03-17T19:03:09.146Z,3.40
2019-03-17T19:05:38.348Z,2.30
2019-03-17T19:08:07.666Z,1.80
2019-03-17T19:10:36.837Z,2.30
2019-03-17T19:13:06.203Z,1.77
2019-03-17T19:15:35.643Z,1.93
2019-03-17T19:18:04.925Z,1.63
2019-03-17T19:20:34.174Z,3.53
2019-03-17T19:23:05.213Z,2.03
2019-03-17T19:25:34.397Z,2.13
2019-03-17T19:28:04.385Z,2.43
2019-03-17T19:30:33.603Z,1.77
2019-03-17T19:33:03.062Z,2.53
2019-03-17T19:35:32.361Z,1.70
2019-03-17T19:38:01.580Z,3.33
2019-03-17T19:40:31.564Z,3.87
2019-03-17T19:43:00.761Z,1.93
2019-03-17T19:45:29.983Z,2.10
2019-03-17T19:47:59.130Z,2.53
2019-03-17T19:50:28.357Z,1.90
2019-03-17T19:52:57.670Z,2.13
2019-03-17T19:55:26.986Z,2.23
2019-03-17T19:57:56.099Z,1.83
2019-03-17T20:00:25.372Z,2.87
2019-03-17T20:02:54.563Z,2.93
2019-03-17T20:05:23.944Z,2.43
2019-03-17T20:07:55.153Z,2.10
2019-03-17T20:10:24.901Z,3.60
2019-03-17T20:12:54.110Z,3.80
2019-03-17T20:15:23.359Z,3.17
2019-03-17T20:20:21.745Z,1.63
2019-03-17T20:22:50.914Z,2.43
2019-03-17T20:25:20.148Z,2.60
2019-03-17T20:27:49.303Z,1.67
2019-03-17T20:30:18.483Z,3.77
2019-03-17T20:32:47.830Z,3.03
2019-03-17T20:35:20.161Z,1.87
2019-03-17T20:37:49.434Z,4.37
2019-03-17T20:40:18.783Z,2.33
2019-03-17T20:42:48.035Z,1.47
2019-03-17T20:45:20.160Z,3.57
2019-03-17T20:47:48.344Z,2.87
2019-03-17T20:50:17.666Z,2.90
2019-03-17T20:52:47.368Z,3.00
2019-03-17T20:55:16.630Z,3.27
2019-03-17T20:57:45.863Z,1.97
2019-03-17T21:00:15.314Z,2.80
2019-03-17T21:02:44.588Z,2.27
2019-03-17T21:05:14.164Z,2.27
2019-03-17T21:07:45.012Z,3.93
2019-03-17T21:10:14.365Z,2.90
2019-03-17T21:12:43.653Z,2.63
2019-03-17T21:15:13.691Z,5.70
2019-03-17T21:17:42.914Z,3.37
2019-03-17T21:20:13.473Z,2.40
2019-03-17T21:22:42.698Z,2.10
2019-03-17T21:25:12.307Z,1.47
2019-03-17T21:27:42.346Z,3.43
2019-03-17T21:30:14.576Z,3.33
2019-03-17T21:32:43.844Z,2.10
2019-03-17T21:35:13.003Z,2.07
2019-03-17T21:37:42.173Z,3.50
2019-03-17T21:40:11.532Z,4.23
2019-03-17T21:42:40.762Z,2.60
2019-03-17T21:45:10.264Z,2.00
2019-03-17T21:47:39.559Z,1.87
2019-03-17T21:50:11.354Z,1.57
2019-03-17T21:52:40.973Z,1.20
2019-03-17T21:55:12.709Z,2.67
2019-03-17T21:57:42.251Z,2.27
2019-03-17T22:00:13.913Z,1.67
2019-03-17T22:02:43.577Z,2.53
2019-03-17T22:05:13.948Z,2.07
2019-03-17T22:07:49.557Z,2.53
2019-03-17T22:10:15.128Z,3.07
2019-03-17T22:12:44.350Z,2.60
2019-03-17T22:15:13.463Z,2.13
2019-03-17T22:17:42.638Z,2.07
2019-03-17T22:20:11.897Z,2.10
2019-03-17T22:22:41.335Z,4.03
2019-03-17T22:25:10.635Z,7.20
2019-03-17T22:27:39.793Z,4.40
2019-03-17T22:30:25.036Z,4.13
2019-03-17T22:33:13.990Z,3.13
2019-03-17T22:36:02.282Z,3.67
2019-03-17T22:38:49.746Z,4.50
2019-03-17T22:41:35.603Z,3.43
2019-03-17T22:44:25.042Z,3.53
2019-03-17T22:47:09.006Z,4.17
2019-03-17T22:49:38.409Z,5.37
2019-03-17T22:52:27.689Z,5.63
2019-03-17T22:55:18.195Z,3.13
2019-03-17T22:58:03.900Z,2.90
2019-03-17T23:00:52.970Z,3.23
2019-03-17T23:03:42.009Z,4.07
2019-03-17T23:06:25.591Z,4.07
2019-03-17T23:09:14.125Z,3.57
2019-03-17T23:12:04.770Z,2.67
2019-03-17T23:14:45.661Z,3.80
2019-03-17T23:17:33.095Z,7.20
2019-03-17T23:20:17.343Z,3.57
2019-03-17T23:23:10.910Z,4.93
2019-03-17T23:26:01.558Z,2.23
2019-03-17T23:28:48.454Z,2.93
2019-03-17T23:31:35.348Z,5.57
2019-03-17T23:34:21.471Z,1.90
2019-03-17T23:37:08.236Z,3.53
2019-03-17T23:39:37.355Z,3.97
2019-03-17T23:42:22.764Z,3.50
2019-03-17T23:45:10.454Z,3.53
2019-03-17T23:48:06.323Z,2.83
2019-03-17T23:50:53.532Z,3.77
2019-03-17T23:53:45.675Z,3.83
2019-03-17T23:56:47.376Z,5.67
2019-03-17T23:59:20.204Z,3.40
